Time;durP1;ratioP1;P1;durP2;ratioP2;P2;SDS_P1;SDS_P2;PMS_P1;PMS_P2;Temp;Humidity;BMP_temperature;BMP_pressure;BME280_temperature;BME280_humidity;BME280_pressure;Samples;Min_cycle;Max_cycle;Signal;HPM_P1;HPM_P2
2021/05/25 00:00:55;;;;;;;6.22;3.75;;;10.40;99.90;;;;;;5053912;28;20469;-75
2021/05/25 00:03:24;;;;;;;4.97;3.65;;;10.50;99.90;;;;;;5053751;28;20041;-75
2021/05/25 00:05:50;;;;;;;5.20;4.38;;;10.40;99.90;;;;;;5053670;28;20453;-75
2021/05/25 00:08:16;;;;;;;4.60;3.78;;;10.40;99.90;;;;;;5054220;28;20072;-75
2021/05/25 00:10:42;;;;;;;4.32;3.17;;;10.40;99.90;;;;;;5053514;28;20041;-74
2021/05/25 00:13:08;;;;;;;4.90;3.40;;;10.40;99.90;;;;;;5054299;28;20086;-75
2021/05/25 00:15:35;;;;;;;4.57;2.88;;;10.40;99.90;;;;;;5053591;28;20033;-75
2021/05/25 00:18:02;;;;;;;3.15;2.83;;;10.40;99.90;;;;;;5053750;28;20037;-75
2021/05/25 00:20:28;;;;;;;5.10;2.97;;;10.30;99.90;;;;;;5053074;28;20067;-75
2021/05/25 00:22:54;;;;;;;3.92;2.55;;;10.30;99.90;;;;;;5053541;28;20115;-75
2021/05/25 00:25:21;;;;;;;3.92;2.60;;;10.30;99.90;;;;;;5053694;28;20543;-74
2021/05/25 00:27:47;;;;;;;3.83;2.55;;;10.30;99.90;;;;;;5053598;28;20082;-75
2021/05/25 00:30:16;;;;;;;4.32;2.42;;;10.20;99.90;;;;;;5053179;28;20126;-75
2021/05/25 00:32:43;;;;;;;2.42;1.75;;;10.20;99.90;;;;;;5053620;28;20041;-75
2021/05/25 00:35:10;;;;;;;2.58;1.67;;;10.20;99.90;;;;;;5053210;28;20041;-74
2021/05/25 00:37:36;;;;;;;2.42;1.83;;;10.10;99.90;;;;;;5053556;28;20416;-74
2021/05/25 00:40:04;;;;;;;2.45;1.70;;;10.10;99.90;;;;;;5052293;28;20037;-75
2021/05/25 00:42:32;;;;;;;2.65;1.60;;;10.00;99.90;;;;;;5053923;28;20037;-74
2021/05/25 00:44:57;;;;;;;2.45;1.80;;;10.00;99.90;;;;;;5053126;28;20033;-74
2021/05/25 00:47:31;;;;;;;2.00;1.80;;;10.00;99.90;;;;;;5053326;28;20059;-75
2021/05/25 00:50:09;;;;;;;;;;;10.00;99.90;;;;;;5053148;28;20146;-74
2021/05/25 00:52:40;;;;;;;3.10;2.03;;;9.90;99.90;;;;;;5053866;28;19970;-74
2021/05/25 00:55:07;;;;;;;3.33;2.03;;;9.90;99.90;;;;;;5053222;28;20036;-74
2021/05/25 00:57:33;;;;;;;3.58;2.50;;;9.90;99.90;;;;;;5053481;28;20037;-75
2021/05/25 01:00:01;;;;;;;3.05;2.65;;;9.90;99.90;;;;;;5052940;28;20404;-74
2021/05/25 01:02:26;;;;;;;2.92;2.55;;;10.00;99.90;;;;;;5053525;28;20428;-74
2021/05/25 01:04:52;;;;;;;4.47;2.83;;;9.90;99.90;;;;;;5053597;28;20094;-74
2021/05/25 01:07:18;;;;;;;5.50;3.08;;;9.90;99.90;;;;;;5035905;28;20115;-74
2021/05/25 01:09:44;;;;;;;3.78;3.05;;;10.00;99.90;;;;;;5052769;28;20056;-75
2021/05/25 01:12:10;;;;;;;4.68;2.85;;;9.90;99.90;;;;;;5053147;28;20037;-74
2021/05/25 01:14:47;;;;;;;3.55;2.65;;;10.00;99.90;;;;;;5053249;28;20041;-74
2021/05/25 01:17:14;;;;;;;4.35;3.13;;;9.90;99.90;;;;;;5053191;28;20041;-74
2021/05/25 01:19:40;;;;;;;6.05;3.20;;;9.90;99.90;;;;;;5052804;28;20091;-75
2021/05/25 01:22:05;;;;;;;7.22;3.80;;;9.90;99.90;;;;;;5052871;28;20048;-75
2021/05/25 01:24:32;;;;;;;3.95;3.03;;;9.90;99.90;;;;;;5053039;28;20033;-74
2021/05/25 01:27:04;;;;;;;4.57;3.38;;;9.90;99.90;;;;;;5053226;28;20040;-75
2021/05/25 01:29:31;;;;;;;4.72;3.35;;;9.90;99.90;;;;;;5052833;28;20174;-75
2021/05/25 01:31:57;;;;;;;4.63;3.10;;;9.90;99.90;;;;;;5052709;28;20041;-74
2021/05/25 01:34:23;;;;;;;3.38;2.65;;;9.90;99.90;;;;;;5052653;28;20060;-74
2021/05/25 01:36:49;;;;;;;3.05;2.38;;;9.90;99.90;;;;;;5052727;28;20033;-74
2021/05/25 01:39:15;;;;;;;5.78;3.03;;;9.90;99.90;;;;;;5052925;28;20112;-74
2021/05/25 01:41:41;;;;;;;4.72;3.38;;;9.90;99.90;;;;;;5053217;28;20049;-74
2021/05/25 01:44:08;;;;;;;4.20;3.30;;;9.90;99.90;;;;;;5052739;28;20562;-74
2021/05/25 01:46:34;;;;;;;4.10;2.75;;;9.90;99.90;;;;;;5052995;28;20037;-74
2021/05/25 01:49:01;;;;;;;5.50;3.67;;;9.90;99.90;;;;;;5053035;28;20440;-75
2021/05/25 01:51:27;;;;;;;5.03;3.50;;;9.90;99.90;;;;;;5053440;28;20123;-75
2021/05/25 01:53:53;;;;;;;4.10;3.70;;;9.90;99.90;;;;;;5056567;28;20116;-75
2021/05/25 01:56:18;;;;;;;7.38;3.92;;;9.80;99.90;;;;;;5056534;28;20495;-74
2021/05/25 01:58:45;;;;;;;5.53;4.18;;;9.90;99.90;;;;;;5056013;28;20036;-74
2021/05/25 02:01:13;;;;;;;6.78;4.35;;;9.90;99.90;;;;;;5056042;28;20037;-74
2021/05/25 02:03:40;;;;;;;6.00;4.50;;;9.80;99.90;;;;;;5056783;28;20051;-74
2021/05/25 02:06:07;;;;;;;5.20;4.30;;;9.80;99.90;;;;;;5056151;28;20090;-74
2021/05/25 02:08:33;;;;;;;6.40;4.80;;;9.80;99.90;;;;;;5055980;28;20037;-75
2021/05/25 02:11:01;;;;;;;5.43;4.43;;;9.80;99.90;;;;;;5055706;28;20064;-74
2021/05/25 02:13:36;;;;;;;6.10;5.10;;;9.80;99.90;;;;;;5055835;28;20069;-75
2021/05/25 02:16:05;;;;;;;7.10;5.57;;;9.80;99.90;;;;;;5056508;28;20069;-75
2021/05/25 02:18:34;;;;;;;9.13;6.28;;;9.80;99.90;;;;;;5055643;28;20037;-75
2021/05/25 02:21:03;;;;;;;9.75;5.97;;;9.80;99.90;;;;;;5055986;28;20116;-75
2021/05/25 02:23:29;;;;;;;9.40;6.20;;;9.80;99.90;;;;;;5038043;28;20033;-74
2021/05/25 02:25:56;;;;;;;6.93;5.15;;;9.80;99.90;;;;;;5055561;28;20063;-75
2021/05/25 02:28:22;;;;;;;7.55;5.93;;;9.80;99.90;;;;;;5056198;28;20079;-76
2021/05/25 02:30:48;;;;;;;7.85;5.72;;;9.70;99.90;;;;;;5055318;28;20135;-75
2021/05/25 02:33:19;;;;;;;10.15;7.32;;;9.80;99.90;;;;;;5055707;28;20048;-74
2021/05/25 02:35:46;;;;;;;8.95;6.40;;;9.80;99.90;;;;;;5055662;28;20041;-74
2021/05/25 02:38:14;;;;;;;9.63;6.53;;;9.80;99.90;;;;;;5055874;28;20037;-74
2021/05/25 02:40:41;;;;;;;8.70;5.80;;;9.80;99.90;;;;;;5055683;28;20091;-75
2021/05/25 02:43:07;;;;;;;10.43;8.05;;;9.80;99.90;;;;;;5056092;28;20061;-75
2021/05/25 02:45:34;;;;;;;9.15;7.40;;;9.80;99.90;;;;;;5055745;28;20489;-74
2021/05/25 02:48:00;;;;;;;8.40;6.82;;;9.80;99.90;;;;;;5055434;28;20037;-75
2021/05/25 02:50:26;;;;;;;8.90;6.85;;;9.80;99.90;;;;;;5054839;28;20044;-75
2021/05/25 02:52:53;;;;;;;11.93;8.02;;;9.80;99.90;;;;;;5055134;28;20041;-74
2021/05/25 02:55:22;;;;;;;10.45;8.60;;;9.80;99.90;;;;;;5055064;28;20436;-74
2021/05/25 02:57:48;;;;;;;12.52;8.15;;;9.80;99.90;;;;;;5055661;28;20033;-75
2021/05/25 03:00:25;;;;;;;12.50;8.20;;;9.80;99.90;;;;;;5054841;28;20112;-75
2021/05/25 03:02:52;;;;;;;12.45;9.20;;;9.80;99.90;;;;;;5054431;28;20048;-75
2021/05/25 03:05:19;;;;;;;13.63;8.43;;;9.80;99.90;;;;;;5055235;28;20428;-75
2021/05/25 03:07:45;;;;;;;10.25;6.10;;;9.80;99.90;;;;;;5054848;28;20048;-75
2021/05/25 03:10:15;;;;;;;5.95;3.00;;;9.70;99.90;;;;;;5054462;28;20041;-75
2021/05/25 03:12:40;;;;;;;6.50;2.83;;;9.60;99.90;;;;;;5055202;28;20041;-75
2021/05/25 03:15:09;;;;;;;7.25;3.08;;;9.50;99.90;;;;;;5055242;28;20040;-75
2021/05/25 03:17:35;;;;;;;4.68;3.10;;;9.50;99.90;;;;;;5055246;28;20477;-74
2021/05/25 03:20:01;;;;;;;3.67;2.63;;;9.40;99.90;;;;;;5054160;28;20049;-75
2021/05/25 03:22:27;;;;;;;3.90;2.28;;;9.40;99.90;;;;;;5054458;28;20116;-74
2021/05/25 03:24:53;;;;;;;3.03;2.00;;;9.40;99.90;;;;;;5054446;28;20116;-74
2021/05/25 03:27:19;;;;;;;2.97;1.23;;;9.30;99.90;;;;;;5054381;28;20037;-74
2021/05/25 03:29:44;;;;;;;2.40;1.50;;;9.20;99.90;;;;;;5054573;28;20139;-74
2021/05/25 03:32:10;;;;;;;2.13;1.33;;;9.20;99.90;;;;;;5054252;28;20032;-74
2021/05/25 03:34:36;;;;;;;7.97;1.60;;;9.10;99.90;;;;;;5054310;28;20033;-74
2021/05/25 03:37:02;;;;;;;4.97;1.42;;;9.10;99.90;;;;;;5054421;28;20075;-74
2021/05/25 03:39:27;;;;;;;3.45;1.35;;;9.00;99.90;;;;;;5054106;28;20477;-75
2021/05/25 03:41:54;;;;;;;5.97;1.58;;;9.00;99.90;;;;;;5054370;28;20036;-74
2021/05/25 03:44:20;;;;;;;3.42;1.08;;;8.90;99.90;;;;;;5054201;28;20496;-75
2021/05/25 03:46:46;;;;;;;3.10;0.90;;;9.00;99.90;;;;;;5054607;28;20156;-74
2021/05/25 03:49:11;;;;;;;1.60;1.40;;;8.90;99.90;;;;;;5054111;28;20481;-74
2021/05/25 03:51:37;;;;;;;3.05;1.08;;;8.90;99.90;;;;;;5054517;28;20044;-74
2021/05/25 03:54:14;;;;;;;4.00;1.42;;;8.80;99.90;;;;;;5054529;28;20043;-74
2021/05/25 03:56:53;;;;;;;4.85;1.00;;;8.80;99.90;;;;;;5054126;28;20389;-74
2021/05/25 03:59:19;;;;;;;2.55;1.00;;;8.80;99.90;;;;;;5053818;28;20037;-74
2021/05/25 04:01:45;;;;;;;4.15;1.05;;;8.80;99.90;;;;;;5054511;28;20041;-74
2021/05/25 04:04:11;;;;;;;3.17;0.90;;;8.80;99.90;;;;;;5054412;28;20041;-74
2021/05/25 04:06:39;;;;;;;2.72;1.00;;;8.80;99.90;;;;;;5053732;28;20538;-74
2021/05/25 04:09:05;;;;;;;3.38;1.13;;;8.80;99.90;;;;;;5053526;28;20497;-74
2021/05/25 04:11:31;;;;;;;2.55;1.48;;;8.80;99.90;;;;;;5053790;28;20382;-74
2021/05/25 04:13:57;;;;;;;5.13;1.20;;;8.80;99.90;;;;;;5054148;28;20068;-74
2021/05/25 04:16:23;;;;;;;2.72;1.27;;;8.70;99.90;;;;;;5053544;28;20060;-74
2021/05/25 04:18:48;;;;;;;6.63;1.80;;;8.70;99.90;;;;;;5053712;28;20106;-75
2021/05/25 04:21:14;;;;;;;5.47;1.33;;;8.70;99.90;;;;;;5053427;28;20045;-74
2021/05/25 04:23:40;;;;;;;3.50;1.13;;;8.80;99.90;;;;;;5053553;28;20044;-74
2021/05/25 04:26:05;;;;;;;4.38;1.50;;;8.70;99.90;;;;;;5053714;28;20041;-75
2021/05/25 04:28:31;;;;;;;1.75;1.05;;;8.70;99.90;;;;;;5053550;28;20120;-75
2021/05/25 04:30:57;;;;;;;3.10;1.00;;;8.70;99.90;;;;;;5053353;28;20082;-75
2021/05/25 04:33:23;;;;;;;2.67;1.38;;;8.80;99.90;;;;;;5053245;28;20045;-75
2021/05/25 04:35:49;;;;;;;3.53;1.35;;;8.70;99.90;;;;;;5053326;28;20036;-74
2021/05/25 04:38:15;;;;;;;2.50;1.30;;;8.70;99.90;;;;;;5053436;28;20398;-75
2021/05/25 04:40:41;;;;;;;5.55;1.52;;;8.70;99.90;;;;;;5053018;28;20480;-75
2021/05/25 04:43:08;;;;;;;2.53;1.25;;;8.70;99.90;;;;;;5053303;28;20065;-75
2021/05/25 04:45:34;;;;;;;3.10;1.27;;;8.70;99.90;;;;;;5053281;28;20496;-75
2021/05/25 04:48:00;;;;;;;2.50;1.40;;;8.70;99.90;;;;;;5053168;28;20033;-75
2021/05/25 04:50:26;;;;;;;2.10;0.90;;;8.70;99.90;;;;;;5052951;28;20044;-75
2021/05/25 04:52:52;;;;;;;2.03;1.40;;;8.70;99.90;;;;;;5053511;28;20041;-75
2021/05/25 04:55:20;;;;;;;6.65;1.30;;;8.70;99.90;;;;;;5053140;28;20033;-75
2021/05/25 04:57:45;;;;;;;4.53;1.40;;;8.70;99.90;;;;;;5053231;28;20076;-75
2021/05/25 05:00:17;;;;;;;2.28;1.35;;;8.70;99.90;;;;;;5052706;28;20449;-75
2021/05/25 05:02:42;;;;;;;4.80;1.27;;;8.70;99.90;;;;;;5053669;28;20044;-75
2021/05/25 05:05:11;;;;;;;5.07;1.10;;;8.70;99.90;;;;;;5053063;28;20488;-75
2021/05/25 05:07:37;;;;;;;3.42;1.10;;;8.70;99.90;;;;;;5053299;28;20065;-75
2021/05/25 05:10:05;;;;;;;2.95;1.25;;;8.70;99.90;;;;;;5053072;28;20090;-75
2021/05/25 05:12:31;;;;;;;6.53;1.85;;;8.70;99.90;;;;;;5052870;28;20104;-75
2021/05/25 05:14:56;;;;;;;3.55;1.30;;;8.80;99.90;;;;;;5052827;28;20041;-75
2021/05/25 05:17:24;;;;;;;1.77;1.10;;;8.70;99.90;;;;;;5053280;28;20390;-75
2021/05/25 05:19:50;;;;;;;3.70;1.45;;;8.80;99.90;;;;;;5052489;28;20454;-75
2021/05/25 05:22:16;;;;;;;3.08;1.48;;;8.80;99.90;;;;;;5053469;28;20041;-75
2021/05/25 05:24:42;;;;;;;3.33;1.60;;;8.80;99.90;;;;;;5053208;28;20087;-75
2021/05/25 05:27:08;;;;;;;3.47;1.30;;;8.80;99.90;;;;;;5054764;28;20409;-75
2021/05/25 05:29:33;;;;;;;2.83;1.60;;;8.80;99.90;;;;;;5056476;28;20086;-75
2021/05/25 05:31:59;;;;;;;3.42;1.52;;;8.80;99.90;;;;;;5056838;28;20076;-75
2021/05/25 05:34:25;;;;;;;4.05;1.50;;;8.80;99.90;;;;;;5038700;28;20037;-75
2021/05/25 05:36:51;;;;;;;3.65;1.67;;;8.90;99.90;;;;;;5056488;28;20396;-75
2021/05/25 05:39:16;;;;;;;5.15;1.55;;;8.90;99.90;;;;;;5056458;28;20071;-75
2021/05/25 05:41:42;;;;;;;5.50;2.40;;;8.90;99.90;;;;;;5056851;28;20470;-75
2021/05/25 05:44:08;;;;;;;3.22;1.60;;;8.90;99.90;;;;;;5038580;28;20043;-75
2021/05/25 05:46:34;;;;;;;3.30;1.70;;;8.90;99.90;;;;;;5056322;28;20045;-75
2021/05/25 05:48:59;;;;;;;4.18;1.80;;;8.90;99.90;;;;;;5056591;28;20468;-75
2021/05/25 05:51:25;;;;;;;4.32;1.50;;;9.00;99.90;;;;;;5056150;28;20037;-75
2021/05/25 05:53:51;;;;;;;5.47;1.75;;;9.00;99.90;;;;;;5056538;28;20041;-75
2021/05/25 05:56:20;;;;;;;2.92;1.80;;;9.10;99.90;;;;;;5056022;28;20094;-75
2021/05/25 05:58:46;;;;;;;5.63;1.90;;;9.10;99.90;;;;;;5056445;28;20037;-75
2021/05/25 06:01:13;;;;;;;5.22;1.63;;;9.10;99.90;;;;;;5055988;28;20041;-75
2021/05/25 06:03:39;;;;;;;4.40;1.60;;;9.10;99.90;;;;;;5056036;28;20076;-75
2021/05/25 06:06:06;;;;;;;6.47;2.30;;;9.20;99.90;;;;;;5055964;28;20044;-75
2021/05/25 06:08:33;;;;;;;3.33;1.45;;;9.20;99.90;;;;;;5055805;28;20029;-75
2021/05/25 06:10:59;;;;;;;3.63;1.77;;;9.20;99.90;;;;;;5056514;28;20179;-75
2021/05/25 06:13:25;;;;;;;2.83;1.60;;;9.20;99.90;;;;;;5055857;28;20505;-75
2021/05/25 06:15:57;;;;;;;5.55;1.73;;;9.20;99.90;;;;;;5056504;28;20043;-75
2021/05/25 06:18:22;;;;;;;2.97;1.50;;;9.20;99.90;;;;;;5055972;28;20029;-76
2021/05/25 06:20:48;;;;;;;3.10;1.70;;;9.20;99.90;;;;;;5055710;28;20052;-75
2021/05/25 06:23:13;;;;;;;4.10;1.80;;;9.30;99.90;;;;;;5055724;28;20095;-75
2021/05/25 06:25:40;;;;;;;3.35;1.92;;;9.30;99.90;;;;;;5056154;28;20033;-75
2021/05/25 06:28:06;;;;;;;5.50;2.03;;;9.30;99.90;;;;;;5056181;28;20084;-75
2021/05/25 06:30:32;;;;;;;7.07;2.00;;;9.30;99.90;;;;;;5055291;28;20076;-75
2021/05/25 06:32:59;;;;;;;5.82;2.15;;;9.40;99.90;;;;;;5055702;28;20045;-75
2021/05/25 06:35:25;;;;;;;4.20;2.00;;;9.40;99.90;;;;;;5055547;28;20036;-75
2021/05/25 06:37:51;;;;;;;7.68;2.58;;;9.40;99.90;;;;;;5054574;28;20414;-75
2021/05/25 06:40:17;;;;;;;3.13;1.63;;;9.40;99.90;;;;;;5054921;28;20041;-75
2021/05/25 06:42:43;;;;;;;3.50;1.60;;;9.50;99.90;;;;;;5056173;28;20070;-75
2021/05/25 06:45:10;;;;;;;5.68;1.58;;;9.50;99.90;;;;;;5055230;28;20397;-75
2021/05/25 06:47:37;;;;;;;3.72;1.27;;;9.50;99.90;;;;;;5055398;28;20041;-75
2021/05/25 06:50:07;;;;;;;3.85;1.75;;;9.60;99.90;;;;;;5055064;28;20037;-75
2021/05/25 06:52:33;;;;;;;3.30;2.20;;;9.60;99.90;;;;;;5055151;28;20412;-75
2021/05/25 06:55:00;;;;;;;6.45;2.38;;;9.70;99.90;;;;;;5055662;28;20476;-76
2021/05/25 06:57:26;;;;;;;3.15;1.80;;;9.70;99.90;;;;;;5055309;28;20037;-75
2021/05/25 06:59:53;;;;;;;5.43;1.70;;;9.80;99.90;;;;;;5054849;28;20362;-75
2021/05/25 07:02:22;;;;;;;3.85;1.77;;;9.80;99.90;;;;;;5055014;28;20102;-75
2021/05/25 07:04:52;;;;;;;4.70;1.90;;;9.90;99.90;;;;;;5054946;28;20037;-75
2021/05/25 07:07:19;;;;;;;3.85;2.25;;;10.00;99.90;;;;;;5055479;28;20095;-75
2021/05/25 07:09:45;;;;;;;9.73;3.17;;;10.10;99.90;;;;;;5054821;28;20033;-75
2021/05/25 07:12:11;;;;;;;3.33;2.35;;;10.10;99.90;;;;;;5054771;28;20128;-75
2021/05/25 07:14:37;;;;;;;3.72;2.45;;;10.10;99.90;;;;;;5054721;28;20041;-75
2021/05/25 07:17:03;;;;;;;6.70;2.17;;;10.20;99.90;;;;;;5055321;28;20037;-75
2021/05/25 07:19:28;;;;;;;4.22;1.90;;;10.30;99.90;;;;;;5054368;28;20102;-75
2021/05/25 07:21:54;;;;;;;2.88;1.90;;;10.40;99.90;;;;;;5054590;28;20476;-75
2021/05/25 07:24:20;;;;;;;4.85;1.90;;;10.60;99.90;;;;;;5054494;28;20361;-76
2021/05/25 07:26:46;;;;;;;2.13;1.88;;;10.70;99.90;;;;;;5054487;28;20091;-75
2021/05/25 07:29:11;;;;;;;3.30;1.70;;;10.80;99.90;;;;;;5054196;28;20382;-76
2021/05/25 07:31:37;;;;;;;2.85;1.30;;;11.00;99.90;;;;;;5036608;28;20091;-76
2021/05/25 07:34:03;;;;;;;3.78;1.40;;;11.20;99.90;;;;;;5054437;28;20041;-76
2021/05/25 07:36:29;;;;;;;1.90;1.33;;;11.40;99.90;;;;;;5054314;28;20044;-76
2021/05/25 07:38:55;;;;;;;1.60;1.40;;;11.50;99.90;;;;;;5054509;28;20029;-76
2021/05/25 07:41:21;;;;;;;4.32;1.55;;;11.60;99.90;;;;;;5054345;28;20066;-76
2021/05/25 07:43:47;;;;;;;1.90;1.50;;;11.50;99.90;;;;;;5054569;28;20041;-75
2021/05/25 07:46:13;;;;;;;4.28;1.10;;;11.60;99.90;;;;;;5054239;28;20088;-76
2021/05/25 07:48:40;;;;;;;3.63;1.20;;;11.60;99.90;;;;;;5054091;28;20475;-76
2021/05/25 07:51:06;;;;;;;4.03;1.30;;;11.50;99.70;;;;;;5053580;28;20037;-76
2021/05/25 07:53:32;;;;;;;3.67;2.33;;;11.40;99.70;;;;;;5054511;28;20033;-76
2021/05/25 07:55:58;;;;;;;1.95;1.20;;;11.40;99.70;;;;;;5054066;28;20064;-75
2021/05/25 07:58:24;;;;;;;4.78;1.00;;;11.30;99.80;;;;;;5054199;28;20381;-76
2021/05/25 08:00:51;;;;;;;2.30;1.80;;;11.10;99.30;;;;;;5035825;28;20040;-76
2021/05/25 08:03:17;;;;;;;2.95;1.48;;;11.10;99.70;;;;;;5054357;28;20037;-76
2021/05/25 08:05:43;;;;;;;1.23;0.85;;;11.10;99.90;;;;;;5036689;28;20458;-75
2021/05/25 08:08:09;;;;;;;1.77;0.80;;;11.10;99.90;;;;;;5054208;28;20037;-75
2021/05/25 08:10:36;;;;;;;3.00;1.27;;;11.10;99.50;;;;;;5053305;28;20560;-76
2021/05/25 08:13:03;;;;;;;1.95;1.20;;;11.10;99.90;;;;;;5053874;28;20530;-75
2021/05/25 08:15:31;;;;;;;1.75;0.95;;;11.00;99.50;;;;;;5053891;28;20044;-75
2021/05/25 08:20:41;;;;;;;1.67;0.60;;;10.90;97.50;;;;;;5053395;28;20512;-75
2021/05/25 08:23:10;;;;;;;1.77;0.77;;;10.80;98.20;;;;;;5053594;28;20041;-75
2021/05/25 08:25:38;;;;;;;3.00;0.80;;;10.80;98.70;;;;;;5053505;28;20082;-75
2021/05/25 08:28:06;;;;;;;1.77;1.13;;;10.90;98.80;;;;;;5053508;28;20548;-75
2021/05/25 08:30:34;;;;;;;3.20;1.27;;;11.20;99.50;;;;;;5053058;28;20033;-75
2021/05/25 08:33:00;;;;;;;1.25;1.02;;;11.20;99.40;;;;;;5053321;28;20120;-75
2021/05/25 08:35:32;;;;;;;2.05;0.90;;;11.20;99.40;;;;;;5053753;28;20068;-75
2021/05/25 08:38:00;;;;;;;2.47;1.30;;;11.20;99.30;;;;;;5053964;28;20037;-75
2021/05/25 08:40:27;;;;;;;2.10;1.08;;;11.20;99.80;;;;;;5053082;28;20515;-75
2021/05/25 08:42:53;;;;;;;1.85;0.90;;;11.20;99.80;;;;;;5035641;28;20041;-75
2021/05/25 08:45:21;;;;;;;2.78;0.80;;;11.10;99.20;;;;;;5053830;28;20048;-75
2021/05/25 08:47:48;;;;;;;2.15;1.08;;;11.00;98.90;;;;;;5053506;28;20048;-76
2021/05/25 08:50:16;;;;;;;3.30;1.40;;;10.90;99.10;;;;;;5052812;28;20064;-75
2021/05/25 08:52:41;;;;;;;2.03;1.08;;;10.90;99.20;;;;;;5053111;28;20535;-75
2021/05/25 08:55:09;;;;;;;2.15;0.90;;;10.80;99.20;;;;;;5035417;28;20045;-75
2021/05/25 08:57:35;;;;;;;2.25;1.00;;;10.80;99.40;;;;;;5053158;28;20041;-75
2021/05/25 09:00:02;;;;;;;2.20;1.10;;;10.70;99.70;;;;;;5052751;28;20498;-75
2021/05/25 09:02:28;;;;;;;3.28;1.00;;;10.60;99.70;;;;;;5056348;28;20508;-74
2021/05/25 09:05:03;;;;;;;2.65;1.38;;;10.60;99.50;;;;;;5057591;28;20040;-75
2021/05/25 09:07:49;;;;;;;2.33;1.08;;;10.50;99.90;;;;;;5039794;28;20041;-75
2021/05/25 09:10:19;;;;;;;1.80;1.23;;;10.50;99.90;;;;;;5056635;28;20420;-75
2021/05/25 09:12:53;;;;;;;6.63;1.50;;;10.40;99.90;;;;;;5039862;28;20044;-75
2021/05/25 09:15:37;;;;;;;2.35;1.20;;;10.50;99.90;;;;;;5057161;28;20508;-75
2021/05/25 09:18:07;;;;;;;5.55;1.38;;;10.50;99.90;;;;;;5057448;28;20040;-75
2021/05/25 09:20:40;;;;;;;5.03;1.27;;;10.40;99.90;;;;;;5056750;28;20037;-75
2021/05/25 09:23:07;;;;;;;2.33;1.40;;;10.40;99.90;;;;;;5057417;28;20040;-75
2021/05/25 09:25:34;;;;;;;3.67;1.52;;;10.30;99.90;;;;;;5056614;28;20041;-75
2021/05/25 09:28:09;;;;;;;3.35;1.50;;;10.30;99.90;;;;;;5057056;28;20037;-75
2021/05/25 09:30:35;;;;;;;2.47;1.40;;;10.30;99.90;;;;;;5055425;28;20107;-76
2021/05/25 09:33:07;;;;;;;4.40;1.45;;;10.20;99.90;;;;;;5056126;28;20037;-75
2021/05/25 09:35:35;;;;;;;3.42;1.55;;;10.10;99.90;;;;;;5056781;28;20493;-75
2021/05/25 09:38:11;;;;;;;2.80;1.63;;;10.10;99.90;;;;;;5056648;28;20060;-74
2021/05/25 09:40:39;;;;;;;2.67;1.60;;;10.10;99.90;;;;;;5056531;28;20052;-74
2021/05/25 09:43:21;;;;;;;1.77;1.10;;;10.00;99.90;;;;;;5056759;28;20116;-74
2021/05/25 09:45:57;;;;;;;2.25;0.63;;;9.90;99.90;;;;;;5057096;28;20047;-74
2021/05/25 09:48:44;;;;;;;2.20;0.75;;;9.90;99.90;;;;;;5056410;28;20059;-75
2021/05/25 09:51:24;;;;;;;2.70;1.20;;;9.80;99.90;;;;;;5055586;28;20068;-75
2021/05/25 09:53:51;;;;;;;4.35;1.02;;;9.90;99.90;;;;;;5056233;28;20051;-75
2021/05/25 09:56:27;;;;;;;2.70;0.75;;;9.90;99.90;;;;;;5056904;28;20033;-76
2021/05/25 09:58:55;;;;;;;1.05;0.70;;;9.90;99.90;;;;;;5056197;28;20044;-74
2021/05/25 10:01:32;;;;;;;1.50;0.73;;;9.90;99.90;;;;;;5056044;28;20124;-74
2021/05/25 10:03:57;;;;;;;1.23;0.80;;;9.90;99.90;;;;;;5056790;28;20041;-74
2021/05/25 10:06:25;;;;;;;2.83;0.80;;;9.90;99.90;;;;;;5056560;28;20060;-75
2021/05/25 10:08:52;;;;;;;1.90;0.88;;;10.00;99.90;;;;;;5056416;28;20059;-75
2021/05/25 10:11:19;;;;;;;1.45;0.70;;;10.00;99.90;;;;;;5038125;28;20068;-74
2021/05/25 10:13:45;;;;;;;0.80;0.60;;;10.00;99.90;;;;;;5055779;28;20087;-74
2021/05/25 10:16:13;;;;;;;1.98;0.90;;;10.00;99.90;;;;;;5056157;28;20037;-75
2021/05/25 10:21:13;;;;;;;1.88;1.00;;;10.00;99.90;;;;;;5055591;28;20481;-75
2021/05/25 10:23:43;;;;;;;2.53;0.93;;;10.00;99.90;;;;;;5055872;28;20124;-75
2021/05/25 10:26:15;;;;;;;2.58;1.00;;;10.00;99.90;;;;;;5055849;28;20444;-75
2021/05/25 10:28:48;;;;;;;1.67;0.93;;;9.90;99.90;;;;;;5055761;28;20037;-75
2021/05/25 10:31:38;;;;;;;1.65;1.00;;;9.90;99.90;;;;;;5055966;28;20041;-75
2021/05/25 10:34:16;;;;;;;1.63;1.00;;;9.90;99.90;;;;;;5055953;28;20041;-75
2021/05/25 10:36:48;;;;;;;5.35;1.10;;;9.90;99.90;;;;;;5055697;28;20041;-75
2021/05/25 10:39:29;;;;;;;2.10;0.98;;;9.90;99.90;;;;;;5055350;28;20044;-75
2021/05/25 10:42:13;;;;;;;1.98;1.20;;;9.90;99.90;;;;;;5055467;28;20048;-75
2021/05/25 10:44:46;;;;;;;1.13;0.77;;;9.90;99.90;;;;;;5055318;28;20044;-75
2021/05/25 10:47:28;;;;;;;6.00;1.00;;;10.00;99.90;;;;;;5055260;28;20041;-75
2021/05/25 10:50:46;;;;;;;5.00;1.00;;;10.00;99.90;;;;;;5055248;28;20037;-75
2021/05/25 10:53:00;;;;;;;1.77;0.90;;;10.00;99.90;;;;;;5047713;28;20057;-75
2021/05/25 10:55:27;;;;;;;1.80;0.80;;;10.10;99.90;;;;;;5055562;28;20104;-75
2021/05/25 10:57:53;;;;;;;1.65;0.70;;;10.10;99.90;;;;;;5037681;28;20037;-75
2021/05/25 11:00:28;;;;;;;1.98;0.75;;;10.10;99.90;;;;;;5054973;28;20047;-75
2021/05/25 11:03:12;;;;;;;1.48;0.82;;;10.10;99.90;;;;;;5055605;28;20080;-75
2021/05/25 11:05:56;;;;;;;1.65;0.80;;;10.10;99.90;;;;;;5054866;28;20427;-75
2021/05/25 11:08:26;;;;;;;1.50;1.00;;;10.10;99.90;;;;;;5037064;28;20393;-75
2021/05/25 11:10:59;;;;;;;1.50;0.95;;;10.10;99.90;;;;;;5054847;28;20037;-74
2021/05/25 11:13:28;;;;;;;1.27;1.00;;;10.10;99.90;;;;;;5054610;28;20041;-76
2021/05/25 11:18:58;;;;;;;1.55;0.90;;;10.00;99.90;;;;;;5054619;28;20571;-75
2021/05/25 11:24:31;;;;;;;2.58;1.00;;;10.10;99.90;;;;;;5053862;28;20041;-75
2021/05/25 11:27:01;;;;;;;1.52;1.02;;;10.10;99.90;;;;;;5055086;28;20037;-75
2021/05/25 11:29:31;;;;;;;1.88;1.40;;;10.10;99.90;;;;;;5054130;28;20437;-75
2021/05/25 11:32:03;;;;;;;2.80;1.00;;;10.10;99.90;;;;;;5054260;28;20037;-75
2021/05/25 11:34:28;;;;;;;3.35;1.50;;;10.20;99.90;;;;;;5054892;28;20045;-75
2021/05/25 11:37:00;;;;;;;3.20;1.40;;;10.20;99.90;;;;;;5054297;28;20040;-75
2021/05/25 11:39:26;;;;;;;2.33;1.40;;;10.30;99.90;;;;;;5053967;28;20116;-75
2021/05/25 11:41:52;;;;;;;3.83;1.83;;;10.30;99.90;;;;;;5054336;28;20123;-75
2021/05/25 11:44:21;;;;;;;3.58;1.83;;;10.50;99.90;;;;;;5054668;28;20040;-75
2021/05/25 11:46:49;;;;;;;2.70;1.45;;;10.60;99.90;;;;;;5054349;28;20037;-75
2021/05/25 11:49:17;;;;;;;3.22;1.77;;;10.60;99.90;;;;;;5036208;28;20377;-74
2021/05/25 11:51:44;;;;;;;3.97;1.60;;;10.60;99.90;;;;;;5054118;28;20456;-75
2021/05/25 11:54:19;;;;;;;2.85;1.55;;;10.60;99.90;;;;;;5054581;28;20045;-74
2021/05/25 11:56:50;;;;;;;2.60;1.77;;;10.60;99.90;;;;;;5054127;28;20036;-74
2021/05/25 11:59:21;;;;;;;3.33;1.55;;;10.60;99.90;;;;;;5054008;28;20401;-74
2021/05/25 12:01:52;;;;;;;3.95;1.42;;;10.70;99.90;;;;;;5053934;28;20384;-75
2021/05/25 12:04:27;;;;;;;2.90;1.73;;;10.70;99.90;;;;;;5054024;28;20033;-74
2021/05/25 12:06:55;;;;;;;4.10;1.63;;;10.70;99.90;;;;;;5054308;28;20037;-74
2021/05/25 12:09:27;;;;;;;5.10;2.70;;;10.70;99.90;;;;;;5053488;28;20044;-75
2021/05/25 12:12:07;;;;;;;3.60;1.38;;;10.80;99.90;;;;;;5054119;28;20037;-74
2021/05/25 12:14:33;;;;;;;2.65;1.65;;;10.80;99.90;;;;;;5054153;28;20033;-75
2021/05/25 12:17:00;;;;;;;4.25;1.83;;;10.80;99.90;;;;;;5053855;28;20405;-75
2021/05/25 12:19:26;;;;;;;5.65;1.80;;;10.80;99.90;;;;;;5035310;28;20068;-75
2021/05/25 12:22:06;;;;;;;6.97;1.65;;;10.80;99.90;;;;;;5054002;28;20362;-74
2021/05/25 12:24:35;;;;;;;5.03;2.00;;;10.90;99.90;;;;;;5054110;28;20064;-74
2021/05/25 12:27:01;;;;;;;2.45;1.70;;;11.00;99.90;;;;;;5053578;28;20041;-73
2021/05/25 12:29:27;;;;;;;2.92;1.90;;;11.00;99.90;;;;;;5053149;28;20041;-75
2021/05/25 12:31:54;;;;;;;3.97;2.00;;;11.00;99.90;;;;;;5053810;28;20388;-74
2021/05/25 12:34:21;;;;;;;2.67;1.80;;;10.90;99.90;;;;;;5053811;28;20037;-74
2021/05/25 12:37:00;;;;;;;3.30;1.90;;;11.00;99.90;;;;;;5052386;28;20117;-75
2021/05/25 12:39:37;;;;;;;3.58;2.10;;;11.10;99.90;;;;;;5052819;28;20045;-75
2021/05/25 12:42:18;;;;;;;4.30;2.10;;;11.20;99.90;;;;;;5035745;28;20123;-75
2021/05/25 12:44:44;;;;;;;3.38;2.03;;;11.30;99.90;;;;;;5053377;28;20059;-75
2021/05/25 12:47:14;;;;;;;4.68;1.90;;;11.40;99.70;;;;;;5053083;28;20046;-75
2021/05/25 12:49:50;;;;;;;3.05;2.03;;;11.30;99.50;;;;;;5033251;28;20092;-75
2021/05/25 12:52:28;;;;;;;3.90;2.47;;;11.20;99.70;;;;;;5033616;28;20041;-75
2021/05/25 12:54:54;;;;;;;5.65;2.30;;;11.10;99.90;;;;;;5033597;28;20491;-75
2021/05/25 12:57:19;;;;;;;6.53;2.35;;;11.10;99.90;;;;;;5033240;28;20037;-76
2021/05/25 12:59:45;;;;;;;6.43;2.13;;;11.10;99.90;;;;;;5033069;28;20037;-76
2021/05/25 13:02:11;;;;;;;5.28;2.30;;;11.20;99.90;;;;;;5033095;28;20121;-75
2021/05/25 13:04:36;;;;;;;5.90;2.38;;;11.40;99.90;;;;;;5033200;28;20038;-75
2021/05/25 13:07:06;;;;;;;7.20;2.40;;;11.60;99.90;;;;;;5033333;28;20044;-75
2021/05/25 13:09:40;;;;;;;5.00;2.00;;;11.70;99.90;;;;;;5033155;28;20046;-75